Terminal Aerodrome Forecast
Issued by NWS

Home | Current Version | Previous Version | Graphics & Text | Print | Product List | Glossary On
Versions: 1 2 3 4 5 6 7 8 9 10 11 12 13 14 15 16 17 18 19 20
000
FTUS43 KICT 311700
TAFHUT
TAF
KHUT 311727Z 3118/0118 18021G30KT P6SM FEW050 SCT120
     FM010200 17016G24KT P6SM VCTS BKN050CB OVC120
     FM010700 19010KT P6SM SCT050 OVC120
     FM011500 25012KT P6SM BKN050 OVC120=

USA.gov is the U.S. government's official web portal to all federal, state and local government web resources and services.